• Join FlightAware (Why Join?)
  • Login
  • US Flag 
01:00PM EST


 

Airport Tracker/Info


-or-


 

Live Flight TrackerFlight Track Log ✈ CHQ4762 ✈ 12-Apr-2013 ✈ KORD - KIND

Flight Track Log - Related Links

Times and Time Zones

All times are in EDT time to prevent confusion due to time zone crossing. See the CHQ4762 flight status page for this flight to view local times or setup timezone preferences in your user account.

Time Position Orientation Groundspeed Altitude Reporting Facility
EDT Latitude Longitude Course Direction KTS MPH feet Rate Location/Type
10:44AM 41.9167 -87.9000 172° South 188 216 3,100  Level Chicago TRACON
10:46AM 41.8269 -87.8219 147° Southeast 258 297 6,900 2,400 Climbing Chicago Center
10:47AM 41.6565 -87.6673 157° South  Level Estimated
10:47AM 41.7592 -87.7772 154° Southeast 272 313 9,500  Level Chicago Center
10:48AM 41.5751 -87.6078 156° South  Level Estimated
10:48AM 41.6883 -87.7353 156° South 277 319 11,700  Level Chicago Center
10:49AM 41.4833 -87.5898 172° South  Level FlightAware Approximate
10:49AM 41.6119 -87.6867 155° Southeast 301 346 13,900  Level Chicago Center
10:50AM 41.5339 -87.6383 155° Southeast 307 353 16,200 2,040 Climbing Chicago Center
10:51AM 41.4531 -87.5936 157° South 311 358 18,200 1,380 Climbing Chicago Center
10:52AM 41.3494 -87.5339 157° South 335 386 19,100 1,080 Climbing Chicago Center
10:53AM 41.2583 -87.4828 157° South 351 404 20,500 900 Climbing Chicago Center
10:54AM 41.1658 -87.4311 157° South 358 412 21,000 240 Climbing Chicago Center
10:55AM 41.0703 -87.3775 157° South 369 425 21,000  Level Chicago Center
10:56AM 40.9772 -87.3247 157° South 367 422 21,000  Level Chicago Center
10:57AM 40.8864 -87.2750 158° South 357 411 21,000  Level Chicago Center
10:58AM 40.7975 -87.2236 156° South 350 403 21,000  Level Chicago Center
10:59AM 40.7086 -87.1753 158° South 347 399 21,000 -120 Level Chicago Center
11:00AM 40.6019 -87.1169 157° South 348 400 20,800 -960 Descending Chicago Center
11:01AM 40.5139 -87.0672 157° South 345 397 19,100 -1,920 Descending Chicago Center
11:02AM 40.4297 -87.0217 158° South 331 381 16,900 -2,100 Descending Chicago Center
11:03AM 40.3503 -86.9764 157° South 316 364 14,900 -1,680 Descending Chicago Center
11:04AM 40.2728 -86.9347 158° South 303 349 13,500 -960 Descending Chicago Center
11:05AM 40.1972 -86.8942 158° South 296 341 13,000 -960 Descending Chicago Center
11:06AM 40.1325 -86.8308 143° Southeast 311 358 11,600 -1,500 Descending Chicago Center
11:07AM 40.0908 -86.7669 130° Southeast 308 354 10,500 -960 Descending Indianapolis Center
11:08AM 40.0369 -86.6883 132° Southeast 298 343 10,000 -300 Descending Indianapolis Center
11:09AM 39.9803 -86.6089 133° Southeast 296 341 10,000 -660 Level Indianapolis Center
11:10AM 39.9253 -86.5264 131° Southeast 297 342 8,700 -1,500 Descending Indianapolis Center
11:11AM 39.8633 -86.4294 130° Southeast 294 338 7,000 -960 Descending Indianapolis Center
11:12AM 39.8167 -86.3667 134° Southeast 276 318 7,000 -240 Level Indianapolis TRACON
11:13AM 39.8333 -86.2833 75° East 297 342 6,600 -900 Descending Indianapolis TRACON
11:14AM 39.9000 -86.1833 49° Northeast 283 326 5,000 -960 Descending Indianapolis TRACON
11:15AM 39.9000 -86.1000 90° East 255 293 4,400 -840 Descending Indianapolis TRACON
11:16AM 39.8667 -86.1167 201° Southwest 207 238 3,600 -720 Descending Indianapolis TRACON
11:17AM 39.8000 -86.1833 218° Southwest 201 231 3,000 -480 Descending Indianapolis TRACON